Tiempo atmosférico en la estación meteorológica de L?Estartit, Girona (1 m.)



Fecha
DESCASC
Temp. máxima en grados centígrados (hora)
DESCASC
Temp. mínima en grados centígrados (hora)
DESCASC
Temp. media en grados centígrados
DESCASC
Racha de viento máxima en m/sg (hora)
DESCASC
Velocidad máxima media en intervalos de 10 minutos(hora)
DESCASC
Precipitaciones diarias en mm
DESCASC
Precipitaciones de 00:00 a 06:00 en mm
DESCASC
Precipitaciones de 06:00 a 12:00 en mm
DESCASC
Precipitaciones de 12:00 a 18:00 en mm
DESCASC
Precipitaciones de 18:00 a 24:00 en mm
DESCASC

Gráficas

Temp. máximas Temp. mínimas Temp. medias Precipitaciones Rachas de viento máximas Velocidades máximas media en intervalos de 10 minutos

Datos horarios

Fecha y hora oficial Temperatura (ºC) Velocidad del viento (km/h) Dirección del viento Racha (km/h) Dirección de racha Precipitación (mm) Presión (hPa) Tendencia (hPa) Humedad (%)
2019-08-19 23:00:00 23.9 4 Noroeste 12 Norte 0 -- -- 57
2019-08-19 22:00:00 24.3 6 Norte 18 Nordeste 0 -- -- 63
2019-08-19 21:00:00 24.2 9 Nordeste 21 Nordeste 0 -- -- 63
2019-08-19 20:00:00 24.2 9 Nordeste 22 Nordeste 0 -- -- 65
2019-08-19 19:00:00 24.8 8 Nordeste 31 Nordeste 0 -- -- 64
2019-08-19 18:00:00 24.9 9 Nordeste 26 Nordeste 0 -- -- 64
2019-08-19 17:00:00 25.3 10 Este 30 Este 0 -- -- 62
2019-08-19 16:00:00 25.9 9 Este 38 Este 0 -- -- 62
2019-08-19 15:00:00 25.4 12 Nordeste 33 Nordeste 0 -- -- 63
2019-08-19 14:00:00 25 16 Este 32 Norte 0 -- -- 67
2019-08-19 13:00:00 24.7 18 Nordeste 38 Norte 0 -- -- 62
2019-08-19 12:00:00 24.6 17 Nordeste 32 Norte 0 -- -- 63
2019-08-19 11:00:00 24.8 13 Nordeste 30 Este 0 -- -- 65
2019-08-19 10:00:00 25.8 10 Este 17 Este 0 -- -- 66
2019-08-19 09:00:00 24 4 Noroeste 12 Noroeste 0 -- -- 78
2019-08-19 08:00:00 23.4 3 Nordeste 23 Norte 0 -- -- 82
2019-08-19 07:00:00 22.9 10 Nordeste 25 Norte 0 -- -- 88
2019-08-19 06:00:00 23.5 4 Norte 12 Nordeste 0 -- -- 91
2019-08-19 05:00:00 23.7 5 Noroeste 13 Noroeste 0 -- -- 91
2019-08-19 04:00:00 23.5 5 Noroeste 15 Norte 0 -- -- 92
2019-08-19 03:00:00 23.7 4 Norte 13 Nordeste 0 -- -- 92
2019-08-19 02:00:00 23.9 2 Norte 13 Este 0 -- -- 93
2019-08-19 01:00:00 24.1 5 Nordeste 11 Nordeste 0 -- -- 93
2019-08-19 00:00:00 24.1 7 Nordeste 12 Nordeste 0 -- -- 93
2019-08-18 23:00:00 24.1 5 Nordeste 10 Nordeste 0 -- -- 92
2019-08-18 22:00:00 24.4 6 Este 9 Este 0 -- -- 92
2019-08-18 21:00:00 24.3 4 Sudeste 18 Sur 0 -- -- 91
2019-08-18 20:00:00 24.6 8 Sur 24 Sur 0 -- -- 90
2019-08-18 19:00:00 25.3 14 Sudeste 35 Sudeste 0 -- -- 87
2019-08-18 18:00:00 25.9 17 Sudeste 28 Sudeste 0 -- -- 86
2019-08-18 17:00:00 26.2 23 Sudeste 32 Sudeste 0 -- -- 83
2019-08-18 16:00:00 26.6 24 Sudeste 39 Sur 0 -- -- 79
2019-08-18 15:00:00 26.2 27 Sudeste 44 Sudeste 0 -- -- 81
2019-08-18 14:00:00 26.3 27 Sur 39 Sudeste 0 -- -- 80
2019-08-18 13:00:00 25.4 28 Sudeste 38 Sudeste 0 -- -- 87
2019-08-18 12:00:00 25.7 24 Sur 33 Sur 0 -- -- 85
2019-08-18 11:00:00 26 17 Sur 31 Sur 0 -- -- 83
2019-08-18 10:00:00 26 18 Sur 29 Sur 0 -- -- 79
2019-08-18 09:00:00 25.4 17 Sur 27 Sur 0 -- -- 86
2019-08-18 08:00:00 24.6 14 Sudoeste 22 Sur 0 -- -- 89
2019-08-18 07:00:00 24.2 15 Sudoeste 22 Sudoeste 0 -- -- 90
2019-08-18 06:00:00 24.2 12 Sudoeste 22 Sudoeste 0 -- -- 89
2019-08-18 05:00:00 24.2 8 Sudoeste 23 Sudoeste 0 -- -- 88
2019-08-18 04:00:00 24.2 7 Sudoeste 16 Sudoeste 0 -- -- 88
2019-08-18 03:00:00 24.2 7 Oeste 13 Sudoeste 0 -- -- 88
2019-08-18 02:00:00 24.5 5 Sudoeste 15 Oeste 0 -- -- 86
2019-08-18 01:00:00 24.7 8 Sudoeste 19 Sudoeste 0 -- -- 85
2019-08-18 00:00:00 24.9 9 Sudoeste 22 Sudoeste 0 -- -- 83
2019-08-17 23:00:00 25.2 14 Sudoeste 26 Sudoeste 0 -- -- 84
2019-08-17 22:00:00 25.3 16 Sur 30 Sur 0 -- -- 84
2019-08-17 21:00:00 25.3 18 Sur 31 Sur 0 -- -- 81
2019-08-17 20:00:00 26 21 Sur 36 Sur 0 -- -- 80
2019-08-17 19:00:00 27.2 22 Sur 39 Sur 0 -- -- 73
2019-08-17 18:00:00 27.8 19 Sur 39 Sudoeste 0 -- -- 69
2019-08-17 17:00:00 29.3 25 Sudoeste 41 Sudoeste 0 -- -- 59
2019-08-17 16:00:00 29.5 23 Sur 36 Sudoeste 0 -- -- 57
2019-08-17 15:00:00 26.6 19 Sur 29 Sur 0 -- -- 79
2019-08-17 14:00:00 25.3 12 Sudeste 20 Sudeste 0 -- -- 79
2019-08-17 13:00:00 25 10 Este 18 Este 0 -- -- 74
2019-08-17 12:00:00 25.7 10 Este 17 Este 0 -- -- 65
2019-08-17 11:00:00 26.1 11 Este 18 Este 0 -- -- 65
2019-08-17 10:00:00 25.7 6 Nordeste 15 Este 0 -- -- 63
2019-08-17 09:00:00 24.6 5 Este 14 Este 0 -- -- 70
2019-08-17 08:00:00 22.8 6 Nordeste 12 Nordeste 0 -- -- 89
2019-08-17 07:00:00 21.9 0 Calma 9 Noroeste 0 -- -- 87
2019-08-17 06:00:00 22.2 4 Noroeste 8 Noroeste 0 -- -- 87
2019-08-17 05:00:00 23 0 Calma 11 Sudoeste 0 -- -- 85
2019-08-17 04:00:00 22.9 8 Oeste 15 Oeste 0 -- -- 88
2019-08-17 03:00:00 22.4 0 Calma 5 Oeste 0 -- -- 86
2019-08-17 02:00:00 22.7 4 Noroeste 10 Oeste 0 -- -- 86
2019-08-17 01:00:00 23.2 6 Noroeste 15 Norte 0 -- -- 85
2019-08-17 00:00:00 23.7 9 Norte 15 Norte 0 -- -- 84
2019-08-16 23:00:00 24.6 4 Noroeste 8 Noroeste 0 -- -- 82
2019-08-16 22:00:00 25.3 4 Oeste 10 Sudoeste 0 -- -- 81
2019-08-16 21:00:00 25 4 Sudoeste 13 Sudeste 0 -- -- 83
2019-08-16 20:00:00 24.9 9 Sur 23 Sudeste 0 -- -- 83
2019-08-16 19:00:00 25 17 Sudeste 27 Sur 0 -- -- 80
2019-08-16 18:00:00 24.5 21 Sur 35 Sudeste 0 -- -- 78
2019-08-16 17:00:00 24.2 24 Sudeste 37 Sudeste 0 -- -- 76
2019-08-16 16:00:00 24.3 20 Sudeste 33 Sudeste 0 -- -- 74
2019-08-16 15:00:00 24.6 17 Sudeste 27 Este 0 -- -- 65
2019-08-16 14:00:00 24.9 15 Sudeste 23 Sudeste 0 -- -- 61
2019-08-16 13:00:00 25 12 Este 22 Este 0 -- -- 58
2019-08-16 12:00:00 24.7 11 Este 14 Este 0 -- -- 59
2019-08-16 11:00:00 24.9 5 Sudeste 10 Sudeste 0 -- -- 60
2019-08-16 10:00:00 24.4 5 Sur 8 Sudeste 0 -- -- 60
2019-08-16 09:00:00 22.9 6 Noroeste 14 Noroeste 0 -- -- 61
2019-08-16 08:00:00 21.5 6 Noroeste 10 Noroeste 0 -- -- 67
2019-08-16 07:00:00 21.6 4 Noroeste 11 Noroeste 0 -- -- 65
2019-08-16 06:00:00 22.1 0 Calma 10 Norte 0 -- -- 64
2019-08-16 05:00:00 22.2 6 Noroeste 13 Noroeste 0 -- -- 63
2019-08-16 04:00:00 21.8 7 Noroeste 14 Noroeste 0 -- -- 63
2019-08-16 03:00:00 22.4 6 Noroeste 14 Noroeste 0 -- -- 62
2019-08-16 02:00:00 22.3 6 Noroeste 13 Noroeste 0 -- -- 64
2019-08-16 01:00:00 22.3 4 Norte 10 Noroeste 0 -- -- 68
2019-08-16 00:00:00 22 3 Noroeste 16 Noroeste 0 -- -- 76
2019-08-15 23:00:00 22.2 8 Norte 15 Noroeste 0 -- -- 73
2019-08-15 22:00:00 21.9 7 Noroeste 14 Norte 0 -- -- 82
2019-08-15 21:00:00 22.1 9 Noroeste 15 Oeste 0 -- -- 83
2019-08-15 20:00:00 22.8 8 Oeste 15 Noroeste 0.8 -- -- 85
2019-08-15 19:00:00 22.9 10 Norte 16 Noroeste 1 -- -- 84
2019-08-15 18:00:00 25.5 3 Oeste 12 Nordeste 0 -- -- 65
2019-08-15 17:00:00 26.2 6 Nordeste 24 Nordeste 0 -- -- 60
2019-08-15 16:00:00 26.8 8 Este 25 Este 0 -- -- 58
2019-08-15 15:00:00 25.8 13 Nordeste 28 Este 0 -- -- 63
2019-08-15 14:00:00 25.6 13 Este 30 Nordeste 0 -- -- 66
2019-08-15 13:00:00 26.2 11 Este 26 Este 0 -- -- 61
2019-08-15 12:00:00 25.8 14 Este 25 Este 0 -- -- 57
2019-08-15 11:00:00 26.2 9 Nordeste 15 Este 0 -- -- 52
2019-08-15 10:00:00 25.1 5 Sudoeste 12 Sudoeste 0 -- -- 59
2019-08-15 09:00:00 22.3 4 Oeste 9 Oeste 0 -- -- 73
2019-08-15 08:00:00 19.7 5 Oeste 11 Oeste 0 -- -- 81
2019-08-15 07:00:00 19.4 4 Noroeste 10 Oeste 0 -- -- 80
2019-08-15 06:00:00 20.7 4 Noroeste 10 Noroeste 0 -- -- 74
2019-08-15 05:00:00 20.9 6 Noroeste 15 Norte 0 -- -- 76
2019-08-15 04:00:00 20.4 4 Sudoeste 10 Oeste 0 -- -- 78
2019-08-15 03:00:00 20.9 5 Oeste 10 Sudoeste 0 -- -- 77
2019-08-15 02:00:00 21.8 6 Oeste 17 Noroeste 0 -- -- 74
2019-08-15 01:00:00 22.2 8 Noroeste 16 Noroeste 0 -- -- 72
2019-08-15 00:00:00 22.9 6 Noroeste 13 Noroeste 0 -- -- 69
2019-08-14 23:00:00 23.6 2 Noroeste 10 Oeste 0 -- -- 66
2019-08-14 22:00:00 24.2 2 Oeste 10 Sudoeste 0 -- -- 66
2019-08-14 21:00:00 24.7 5 Oeste 18 Sudoeste 0 -- -- 65
2019-08-14 20:00:00 25.2 11 Sudoeste 21 Sur 0 -- -- 63
2019-08-14 19:00:00 25.2 12 Sur 27 Sudeste 0 -- -- 65
2019-08-14 18:00:00 24.4 19 Sudeste 28 Sudeste 0 -- -- 65
2019-08-14 17:00:00 24.5 16 Sudeste 24 Sudeste 0 -- -- 60
2019-08-14 16:00:00 25.1 11 Sudeste 16 Sudeste 0 -- -- 51
2019-08-14 15:00:00 24.2 9 Este 18 Este 0 -- -- 53
2019-08-14 14:00:00 24.3 14 Este 28 Este 0 -- -- 50
2019-08-14 13:00:00 25 15 Este 25 Este 0 -- -- 46
2019-08-14 12:00:00 24.7 13 Este 26 Este 0 -- -- 42
2019-08-14 11:00:00 24.4 9 Norte 20 Nordeste 0 -- -- 41
2019-08-14 10:00:00 23.8 9 Nordeste 17 Nordeste 0 -- -- 43
2019-08-14 09:00:00 22.1 5 Oeste 14 Noroeste 0 -- -- 46
2019-08-14 08:00:00 19.6 7 Noroeste 16 Noroeste 0 -- -- 54
2019-08-14 07:00:00 19 8 Noroeste 18 Noroeste 0 -- -- 55
2019-08-14 06:00:00 19.6 6 Noroeste 12 Noroeste 0 -- -- 53
2019-08-14 05:00:00 20.7 8 Noroeste 21 Noroeste 0 -- -- 52
2019-08-14 04:00:00 20.8 8 Noroeste 21 Norte 0 -- -- 53
2019-08-14 03:00:00 21.4 9 Noroeste 23 Noroeste 0 -- -- 51
2019-08-14 02:00:00 21.3 9 Noroeste 24 Noroeste 0 -- -- 52
2019-08-14 01:00:00 21.4 7 Noroeste 17 Noroeste 0 -- -- 50
2019-08-14 00:00:00 21.7 4 Noroeste 13 Noroeste 0 -- -- 48
2019-08-13 23:00:00 22.4 6 Noroeste 14 Noroeste 0 -- -- 48
2019-08-13 22:00:00 23.1 6 Noroeste 17 Sudoeste 0 -- -- 50
2019-08-13 21:00:00 23.9 8 Oeste 15 Oeste 0 -- -- 56
2019-08-13 20:00:00 24.9 9 Oeste 21 Oeste 0 -- -- 51
2019-08-13 19:00:00 26.1 11 Sur 18 Sur 0 -- -- 52
2019-08-13 18:00:00 27.1 5 Sudeste 21 Este 0 -- -- 41
2019-08-13 17:00:00 26.7 12 Este 25 Este 0 -- -- 42
2019-08-13 16:00:00 26.3 13 Este 28 Sudeste 0 -- -- 44
2019-08-13 15:00:00 25.6 16 Este 29 Este 0 -- -- 43
2019-08-13 14:00:00 24.6 16 Este 31 Este 0 -- -- 47
2019-08-13 13:00:00 24 16 Este 29 Este 0 -- -- 51
2019-08-13 12:00:00 24.2 10 Norte 22 Norte 0 -- -- 45
2019-08-13 11:00:00 22.6 10 Norte 22 Norte 0 -- -- 52
2019-08-13 10:00:00 22 6 Noroeste 19 Norte 0 -- -- 54
2019-08-13 09:00:00 20.7 7 Noroeste 16 Oeste 0 -- -- 58
2019-08-13 08:00:00 20.5 9 Noroeste 21 Noroeste 0 -- -- 59
2019-08-13 07:00:00 20.4 7 Noroeste 20 Noroeste 0 -- -- 60
2019-08-13 06:00:00 20.9 7 Noroeste 25 Nordeste 0 -- -- 59
2019-08-13 05:00:00 21.3 8 Noroeste 25 Norte 0 -- -- 57
2019-08-13 04:00:00 21.5 11 Noroeste 26 Noroeste 0 -- -- 55
2019-08-13 03:00:00 21.9 10 Noroeste 28 Norte 0 -- -- 53
2019-08-13 02:00:00 22.4 13 Noroeste 31 Noroeste 0 -- -- 50
2019-08-13 01:00:00 22.7 15 Noroeste 39 Noroeste 0 -- -- 49
2019-08-13 00:00:00 22.9 17 Noroeste 40 Noroeste 0 -- -- 49
2019-08-12 23:00:00 23.1 16 Noroeste 42 Noroeste 0 -- -- 45
2019-08-12 22:00:00 23.1 17 Noroeste 41 Noroeste 0 -- -- 49
2019-08-12 21:00:00 24 15 Noroeste 28 Noroeste 0 -- -- 44
2019-08-12 20:00:00 24.8 15 Noroeste 32 Norte 0 -- -- 43
2019-08-12 19:00:00 26.3 16 Noroeste 40 Noroeste 0 -- -- 42
2019-08-12 18:00:00 27.2 19 Noroeste 39 Noroeste 0 -- -- 42
2019-08-12 17:00:00 28.1 8 Nordeste 30 Nordeste 0 -- -- 43
2019-08-12 16:00:00 28 11 Nordeste 30 Nordeste 0 -- -- 44
2019-08-12 15:00:00 26.7 10 Nordeste 23 Nordeste 0 -- -- 47
2019-08-12 14:00:00 26.6 8 Nordeste 27 Nordeste 0 -- -- 46
2019-08-12 13:00:00 26.7 8 Nordeste 32 Norte 0 -- -- 45
2019-08-12 12:00:00 26 8 Norte 25 Noroeste 0 -- -- 45
2019-08-12 11:00:00 24.7 4 Noroeste 17 Oeste 0 -- -- 55
2019-08-12 10:00:00 23.1 10 Noroeste 17 Oeste 0 -- -- 66
2019-08-12 09:00:00 21.9 8 Noroeste 14 Noroeste 0 -- -- 70
2019-08-12 08:00:00 19.7 6 Noroeste 14 Noroeste 0.2 -- -- 81
2019-08-12 07:00:00 19.8 8 Noroeste 31 Oeste 1.4 -- -- 80
2019-08-12 06:00:00 21.1 9 Noroeste 28 Oeste 0.8 -- -- 72
2019-08-12 05:00:00 23.2 3 Noroeste 12 Noroeste 0 -- -- 56
2019-08-12 04:00:00 22.7 6 Noroeste 13 Noroeste 0 -- -- 58
2019-08-12 03:00:00 22.7 5 Noroeste 14 Noroeste 0 -- -- 59
2019-08-12 02:00:00 23.2 7 Noroeste 14 Noroeste 0 -- -- 61
2019-08-12 01:00:00 23.2 7 Noroeste 16 Noroeste 0 -- -- 60
2019-08-12 00:00:00 23.6 8 Noroeste 16 Norte 0 -- -- 62
2019-08-11 23:00:00 24.6 8 Norte 18 Norte 0 -- -- 59
2019-08-11 22:00:00 25.4 9 Noroeste 21 Noroeste 0 -- -- 58
2019-08-11 21:00:00 26 9 Nordeste 19 Este 0 -- -- 66
2019-08-11 20:00:00 26.1 11 Este 32 Este 0 -- -- 62
2019-08-11 19:00:00 26 17 Este 30 Este 0 -- -- 71
2019-08-11 18:00:00 26.5 17 Este 31 Sudeste 0 -- -- 74
2019-08-11 17:00:00 27.5 14 Este 26 Sudeste 0 -- -- 70
2019-08-11 16:00:00 27.6 14 Sudeste 29 Sudeste 0 -- -- 68
2019-08-11 15:00:00 27.3 18 Sudeste 31 Sudeste 0 -- -- 66
2019-08-11 14:00:00 27 18 Sudeste 27 Sudeste 0 -- -- 63
2019-08-11 13:00:00 27.6 14 Sudeste 21 Sudeste 0 -- -- 57
2019-08-11 12:00:00 27.8 9 Este 14 Este 0 -- -- 52
2019-08-11 11:00:00 28.1 8 Sudeste 12 Sudeste 0 -- -- 52
2019-08-11 10:00:00 27.5 5 Sudeste 9 Este 0 -- -- 53
2019-08-11 09:00:00 25.6 3 Sudeste 6 Sudoeste 0 -- -- 64
2019-08-11 08:00:00 23.4 4 Oeste 16 Noroeste 0 -- -- 67
2019-08-11 07:00:00 23.1 10 Noroeste 17 Noroeste 0 -- -- 61
2019-08-11 06:00:00 23.4 10 Noroeste 17 Noroeste 0 -- -- 60
2019-08-11 05:00:00 23.6 9 Noroeste 18 Noroeste 0 -- -- 59
2019-08-11 04:00:00 24.2 9 Noroeste 19 Noroeste 0 -- -- 58
2019-08-11 03:00:00 24.5 10 Noroeste 18 Noroeste 0 -- -- 58
2019-08-11 02:00:00 24.9 10 Noroeste 17 Noroeste 0 -- -- 57
2019-08-11 01:00:00 25.5 10 Noroeste 18 Norte 0 -- -- 56
2019-08-11 00:00:00 25.2 7 Noroeste 12 Norte 0 -- -- 59
2019-08-10 23:00:00 25.8 4 Noroeste 8 Norte 0 -- -- 65
2019-08-10 22:00:00 26.4 4 Norte 9 Norte 0 -- -- 64
2019-08-10 21:00:00 26.5 3 Nordeste 10 Este 0 -- -- 70
2019-08-10 20:00:00 26.9 8 Este 18 Este 0 -- -- 69
2019-08-10 19:00:00 27.9 8 Este 23 Este 0 -- -- 64
2019-08-10 18:00:00 28.1 12 Sudeste 24 Este 0 -- -- 61
2019-08-10 17:00:00 28.7 8 Este 26 Este 0 -- -- 58
2019-08-10 16:00:00 28 13 Este 32 Sudeste 0 -- -- 58
2019-08-10 15:00:00 28.1 13 Este 33 Nordeste 0 -- -- 61
2019-08-10 14:00:00 28.6 14 Nordeste 32 Nordeste 0 -- -- 55
2019-08-10 13:00:00 28.1 17 Nordeste 31 Nordeste 0 -- -- 55
2019-08-10 12:00:00 28.6 17 Este 26 Este 0 -- -- 57
2019-08-10 11:00:00 28.6 13 Este 26 Este 0 -- -- 58
2019-08-10 10:00:00 29.3 9 Norte 21 Norte 0 -- -- 49
2019-08-10 09:00:00 27.7 3 Oeste 13 Noroeste 0 -- -- 63
2019-08-10 08:00:00 25.3 6 Noroeste 11 Noroeste 0 -- -- 76
2019-08-10 07:00:00 24.8 2 Norte 12 Noroeste 0 -- -- 83
2019-08-10 06:00:00 24.8 7 Noroeste 11 Noroeste 0 -- -- 87
2019-08-10 05:00:00 25.6 5 Noroeste 15 Noroeste 0 -- -- 83
2019-08-10 04:00:00 25.3 3 Nordeste 10 Norte 0 -- -- 88
2019-08-10 03:00:00 25.3 5 Nordeste 23 Nordeste 0 -- -- 88
2019-08-10 02:00:00 25.6 11 Nordeste 25 Nordeste 0 -- -- 87
2019-08-10 01:00:00 25.6 12 Nordeste 25 Este 0 -- -- 87
2019-08-10 00:00:00 26 14 Nordeste 29 Nordeste 0 -- -- 85
2019-08-09 23:00:00 26.1 17 Nordeste 36 Nordeste 0 -- -- 85
2019-08-09 22:00:00 27.2 14 Norte 22 Norte 0 -- -- 80
2019-08-09 21:00:00 27.8 6 Sur 14 Sur 0 -- -- 78
2019-08-09 20:00:00 29.2 8 Sur 26 Sur 0 -- -- 72
2019-08-09 19:00:00 30 8 Sur 29 Sur 0 -- -- 69
2019-08-09 18:00:00 30 10 Sudeste 32 Sur 0 -- -- 68
2019-08-09 17:00:00 29.5 25 Sur 39 Sur 0 -- -- 71
2019-08-09 16:00:00 30.5 10 Sudeste 30 Sur 0 -- -- 67
2019-08-09 15:00:00 30.4 15 Sudeste 34 Sudeste 0 -- -- 68
2019-08-09 14:00:00 30.5 17 Sudeste 33 Sudeste 0 -- -- 69
2019-08-09 13:00:00 29.8 22 Sudeste 29 Sur 0 -- -- 67
2019-08-09 12:00:00 29.8 18 Sur 26 Sur 0 -- -- 68
2019-08-09 11:00:00 29.3 14 Sur 24 Sur 0 -- -- 69
2019-08-09 10:00:00 28.9 12 Sudoeste 21 Sudoeste 0 -- -- 73
2019-08-09 09:00:00 27.5 14 Sudoeste 24 Sudoeste 0 -- -- 82
2019-08-09 08:00:00 26.3 8 Sudoeste 19 Sur 0 -- -- 88
2019-08-09 07:00:00 25.9 12 Sur 20 Sur 0 -- -- 89
2019-08-09 06:00:00 25.6 3 Oeste 10 Sudoeste 0 -- -- 89
2019-08-09 05:00:00 25.6 4 Sudoeste 8 Sudoeste 0 -- -- 89
2019-08-09 04:00:00 25.5 3 Sudoeste 12 Sudoeste 0 -- -- 88
2019-08-09 03:00:00 25.8 5 Sudoeste 10 Sur 0 -- -- 88
2019-08-09 02:00:00 26 0 Calma 9 Sudoeste 0 -- -- 87
2019-08-09 01:00:00 26.2 5 Sudoeste 14 Sur 0 -- -- 87
2019-08-09 00:00:00 26.4 6 Sur 23 Sur 0 -- -- 85
2019-08-08 23:00:00 26.6 12 Sur 22 Sur 0 -- -- 83
2019-08-08 22:00:00 26.8 12 Sur 25 Sur 0 -- -- 82
2019-08-08 21:00:00 27.3 12 Sudoeste 23 Sur 0 -- -- 77
2019-08-08 20:00:00 28.4 14 Sur 22 Sur 0 -- -- 71
2019-08-08 19:00:00 28.9 17 Sur 28 Sur 0 -- -- 71
2019-08-08 18:00:00 29.7 14 Sur 30 Sur 0 -- -- 70
2019-08-08 17:00:00 28.3 19 Sur 32 Sudeste 0 -- -- 79
2019-08-08 16:00:00 27.9 19 Sudeste 29 Sudeste 0 -- -- 81
2019-08-08 15:00:00 28.1 19 Sudeste 27 Sudeste 0 -- -- 79
2019-08-08 14:00:00 27.9 16 Sudeste 24 Este 0 -- -- 77
2019-08-08 13:00:00 27.9 13 Este 19 Este 0 -- -- 73
2019-08-08 12:00:00 28.5 10 Este 15 Este 0 -- -- 69
2019-08-08 11:00:00 28.6 9 Este 13 Este 0 -- -- 65
2019-08-08 10:00:00 28.2 4 Sudeste 7 Sudeste 0 -- -- 65
2019-08-08 09:00:00 27.1 4 Sur 6 Sur 0 -- -- 69
2019-08-08 08:00:00 23.9 0 Calma 11 Oeste 0 -- -- 82
2019-08-08 07:00:00 23.7 2 Noroeste 9 Noroeste 0 -- -- 78
2019-08-08 06:00:00 24.5 6 Noroeste 11 Noroeste 0 -- -- 75
2019-08-08 05:00:00 24.3 3 Oeste 13 Noroeste 0 -- -- 76
2019-08-08 04:00:00 24.5 3 Noroeste 14 Norte 0 -- -- 74
2019-08-08 03:00:00 24.4 5 Oeste 9 Noroeste 0 -- -- 74
2019-08-08 02:00:00 24.5 4 Sur 10 Sudoeste 0 -- -- 77
2019-08-08 01:00:00 25 5 Noroeste 20 Noroeste 0 -- -- 71
2019-08-08 00:00:00 25 9 Noroeste 16 Norte 0 -- -- 70
2019-08-07 23:00:00 25.2 8 Noroeste 17 Noroeste 0 -- -- 72
2019-08-07 22:00:00 25.7 6 Noroeste 13 Noroeste 0 -- -- 70
2019-08-07 21:00:00 25.4 5 Sudoeste 12 Sudoeste 0 -- -- 79
2019-08-07 20:00:00 25.3 4 Sudoeste 13 Sudoeste 0 -- -- 80
2019-08-07 19:00:00 25.6 0 Calma 16 Nordeste 0 -- -- 76
2019-08-07 18:00:00 25.5 7 Nordeste 22 Este 0 -- -- 79
2019-08-07 17:00:00 26 11 Nordeste 24 Nordeste 0 -- -- 77
2019-08-07 16:00:00 26.8 15 Norte 30 Este 0 -- -- 73
2019-08-07 15:00:00 27.8 15 Este 32 Este 0 -- -- 65
2019-08-07 14:00:00 27.1 12 Sudeste 24 Este 0 -- -- 74
2019-08-07 13:00:00 26.6 16 Este 26 Este 0 -- -- 78
2019-08-07 12:00:00 26.5 7 Este 23 Nordeste 0 -- -- 78
2019-08-07 11:00:00 25.7 9 Nordeste 22 Nordeste 0 -- -- 80
2019-08-07 10:00:00 25.5 7 Nordeste 25 Nordeste 0 -- -- 82
2019-08-07 09:00:00 24.6 6 Nordeste 18 Nordeste 0 -- -- 86
2019-08-07 08:00:00 24.1 0 Calma 6 Norte 0 -- -- 89
2019-08-07 07:00:00 23.3 4 Noroeste 7 Noroeste 0 -- -- 90
2019-08-07 06:00:00 23.3 3 Noroeste 6 Noroeste 0 -- -- 90
2019-08-07 05:00:00 23.6 3 Noroeste 8 Oeste 0 -- -- 89
2019-08-07 04:00:00 24 6 Nordeste 11 Noroeste 0 -- -- 89
2019-08-07 03:00:00 24.1 5 Noroeste 13 Norte 0 -- -- 88
2019-08-07 02:00:00 24.2 3 Noroeste 10 Noroeste 0 -- -- 89
2019-08-07 01:00:00 24.3 4 Norte 13 Norte 0 -- -- 91
2019-08-07 00:00:00 24.4 6 Nordeste 13 Nordeste 0 -- -- 93
2019-08-06 23:00:00 24.7 8 Nordeste 15 Este 0 -- -- 92
2019-08-06 22:00:00 25.2 6 Nordeste 12 Nordeste 0 -- -- 90
2019-08-06 21:00:00 25.4 9 Nordeste 14 Nordeste 0 -- -- 89
2019-08-06 20:00:00 25.9 9 Nordeste 19 Sudeste 0 -- -- 88
2019-08-06 19:00:00 26.1 13 Sudeste 23 Sudeste 0 -- -- 88
2019-08-06 18:00:00 25.9 8 Sudeste 15 Sudeste 0 -- -- 89
2019-08-06 17:00:00 25.1 12 Sudeste 22 Sudeste 0 -- -- 89
2019-08-06 16:00:00 26 13 Sudeste 23 Este 0 -- -- 84
2019-08-06 15:00:00 26.6 14 Este 22 Este 0 -- -- 80
2019-08-06 14:00:00 26.5 12 Este 22 Este 0 -- -- 78
2019-08-06 13:00:00 26.4 14 Este 20 Este 0 -- -- 75
2019-08-06 12:00:00 26.3 10 Sudeste 18 Sudeste 0 -- -- 74
2019-08-06 11:00:00 26.3 10 Este 20 Este 0 -- -- 71
2019-08-06 10:00:00 25.3 6 Nordeste 15 Norte 0 -- -- 80
2019-08-06 09:00:00 24 4 Este 11 Nordeste 0 -- -- 88
2019-08-06 08:00:00 23.7 2 Sudeste 5 Este 0 -- -- 86
2019-08-06 07:00:00 22.8 0 Calma 5 Oeste 0 -- -- 82
2019-08-06 06:00:00 21.8 3 Oeste 5 Oeste 0 -- -- 77
2019-08-06 05:00:00 22 0 Calma 6 Noroeste 0 -- -- 84
2019-08-06 04:00:00 23.7 3 Noroeste 6 Noroeste 0 -- -- 89
2019-08-06 03:00:00 23.8 3 Noroeste 8 Noroeste 0 -- -- 89
2019-08-06 02:00:00 23.9 4 Noroeste 6 Noroeste 0 -- -- 90
2019-08-06 01:00:00 24.6 0 Calma 13 Sur 0 -- -- 91
2019-08-06 00:00:00 24.9 5 Sur 9 Sudeste 0 -- -- 90
2019-08-05 23:00:00 25.2 5 Sudeste 13 Sudeste 0 -- -- 88
2019-08-05 22:00:00 25.7 7 Sudeste 21 Sur 0 -- -- 83
2019-08-05 21:00:00 26.6 16 Sur 23 Sudeste 0 -- -- 72
2019-08-05 20:00:00 26.2 14 Sudeste 23 Sudeste 0 -- -- 82
2019-08-05 19:00:00 28.6 15 Sur 30 Sur 0 -- -- 55
2019-08-05 18:00:00 26.7 18 Sudeste 30 Sudeste 0 -- -- 84
2019-08-05 17:00:00 26.4 20 Sudeste 30 Sudeste 0 -- -- 86
2019-08-05 16:00:00 26.5 19 Sudeste 27 Sudeste 0 -- -- 84
2019-08-05 15:00:00 25.9 17 Sudeste 29 Sudeste 0 -- -- 81
2019-08-05 14:00:00 26.1 14 Este 27 Este 0 -- -- 75
2019-08-05 13:00:00 26.3 15 Este 27 Este 0 -- -- 78
2019-08-05 12:00:00 26.8 10 Este 22 Este 0 -- -- 79
2019-08-05 11:00:00 27.3 9 Este 15 Este 0 -- -- 68
2019-08-05 10:00:00 26.9 7 Sudeste 15 Este 0 -- -- 65
2019-08-05 09:00:00 24.8 3 Sur 9 Sudoeste 0 -- -- 76
2019-08-05 08:00:00 23.7 0 Calma 6 Sudoeste 0 -- -- 78
2019-08-05 07:00:00 23.3 5 Oeste 10 Noroeste 0 -- -- 76
2019-08-05 06:00:00 23.9 5 Noroeste 12 Noroeste 0 -- -- 76
2019-08-05 05:00:00 24.5 2 Noroeste 11 Noroeste 0 -- -- 74
2019-08-05 04:00:00 26.2 7 Oeste 16 Oeste 0 -- -- 63
2019-08-05 03:00:00 24.5 3 Noroeste 8 Noroeste 0 -- -- 68
2019-08-05 02:00:00 24.7 0 Calma 5 Oeste 0 -- -- 66
2019-08-05 01:00:00 25.7 2 Noroeste 9 Noroeste 0 -- -- 65
2019-08-05 00:00:00 26.2 6 Oeste 12 Oeste 0 -- -- 68
2019-08-04 23:00:00 26.3 3 Sudoeste 8 Sudoeste 0 -- -- 69
2019-08-04 22:00:00 26.9 4 Sudoeste 14 Sudoeste 0 -- -- 67
2019-08-04 21:00:00 27.6 9 Sudoeste 19 Sudoeste 0 -- -- 64
2019-08-04 20:00:00 27.7 11 Sudoeste 22 Sudeste 0 -- -- 68
2019-08-04 19:00:00 25.5 16 Sudeste 28 Sudeste 0 -- -- 74
2019-08-04 18:00:00 25.5 22 Sudeste 30 Sudeste 0 -- -- 71
2019-08-04 17:00:00 26.3 15 Sudeste 23 Sudeste 0 -- -- 66
2019-08-04 16:00:00 26.8 10 Sudeste 18 Sudeste 0 -- -- 58
2019-08-04 15:00:00 27.1 11 Este 24 Este 0 -- -- 51
2019-08-04 14:00:00 27.5 14 Este 27 Este 0 -- -- 45
2019-08-04 13:00:00 28.2 15 Nordeste 27 Nordeste 0 -- -- 41
2019-08-04 12:00:00 28.5 14 Nordeste 26 Nordeste 0 -- -- 47
2019-08-04 11:00:00 28.1 12 Nordeste 23 Norte 0 -- -- 43
2019-08-04 10:00:00 28.2 7 Nordeste 17 Nordeste 0 -- -- 45
2019-08-04 09:00:00 25.4 3 Sudoeste 9 Oeste 0 -- -- 67
2019-08-04 08:00:00 22.8 7 Oeste 10 Oeste 0 -- -- 73
2019-08-04 07:00:00 23.4 6 Noroeste 17 Norte 0 -- -- 67
2019-08-04 06:00:00 23.4 10 Norte 17 Noroeste 0 -- -- 69
2019-08-04 05:00:00 24.5 0 Calma 15 Oeste 0 -- -- 62
2019-08-04 04:00:00 25.8 7 Oeste 19 Oeste 0 -- -- 56
2019-08-04 03:00:00 25.3 3 Oeste 14 Sudoeste 0 -- -- 65
2019-08-04 02:00:00 25.2 6 Oeste 15 Sudoeste 0 -- -- 69
2019-08-04 01:00:00 25.5 7 Oeste 13 Oeste 0 -- -- 72
2019-08-04 00:00:00 25.9 5 Oeste 10 Oeste 0 -- -- 71
2019-08-03 23:00:00 26 5 Oeste 12 Sudoeste 0 -- -- 70
2019-08-03 22:00:00 26.2 6 Oeste 18 Sudoeste 0 -- -- 70
2019-08-03 21:00:00 26.8 11 Sudoeste 28 Sudoeste 0 -- -- 67
2019-08-03 20:00:00 28 11 Sudoeste 24 Sudoeste 0 -- -- 61
2019-08-03 19:00:00 28.3 17 Sudoeste 30 Sudoeste 0 -- -- 56
2019-08-03 18:00:00 26.7 18 Sudeste 27 Sudeste 0 -- -- 66
2019-08-03 17:00:00 27 17 Sudeste 24 Sudeste 0 -- -- 61
2019-08-03 16:00:00 27.6 14 Sudeste 20 Sudeste 0 -- -- 59
2019-08-03 15:00:00 28.4 13 Este 20 Este 0 -- -- 48
2019-08-03 14:00:00 28.8 11 Este 25 Este 0 -- -- 47
2019-08-03 13:00:00 28.4 13 Este 24 Este 0 -- -- 47
2019-08-03 12:00:00 29.1 10 Este 20 Este 0 -- -- 43
2019-08-03 11:00:00 28.4 5 Sudeste 13 Sudeste 0 -- -- 47
2019-08-03 10:00:00 27.8 5 Sudeste 9 Sudoeste 0 -- -- 54
2019-08-03 09:00:00 26.2 4 Sudoeste 14 Norte 0 -- -- 56
2019-08-03 08:00:00 22.7 3 Oeste 10 Oeste 0 -- -- 67
2019-08-03 07:00:00 21.9 4 Oeste 17 Oeste 0 -- -- 68
2019-08-03 06:00:00 23.5 6 Noroeste 14 Norte 0 -- -- 58
2019-08-03 05:00:00 23.9 8 Noroeste 18 Noroeste 0 -- -- 58
2019-08-03 04:00:00 24.7 8 Noroeste 19 Noroeste 0 -- -- 56
2019-08-03 03:00:00 25.9 9 Noroeste 22 Noroeste 0 -- -- 52
2019-08-03 02:00:00 26 6 Noroeste 20 Noroeste 0 -- -- 53
2019-08-03 01:00:00 26.3 5 Norte 16 Noroeste 0 -- -- 51
2019-08-03 00:00:00 26.4 7 Noroeste 18 Oeste 0 -- -- 51
2019-08-02 23:00:00 27.6 5 Noroeste 14 Noroeste 0 -- -- 47
2019-08-02 22:00:00 28 7 Noroeste 17 Norte 0 -- -- 45
2019-08-02 21:00:00 28.6 5 Oeste 11 Oeste 0 -- -- 48
2019-08-02 20:00:00 28 3 Sur 22 Oeste 0 -- -- 58
2019-08-02 19:00:00 30.1 12 Nordeste 21 Nordeste 0 -- -- 43
2019-08-02 18:00:00 29.3 10 Norte 28 Nordeste 0 -- -- 48
2019-08-02 17:00:00 28.7 8 Nordeste 28 Este 0 -- -- 53
2019-08-02 16:00:00 29.8 10 Nordeste 28 Nordeste 0 -- -- 47
2019-08-02 15:00:00 28.8 10 Sudeste 24 Nordeste 0 -- -- 52
2019-08-02 14:00:00 28.9 9 Nordeste 26 Nordeste 0 -- -- 46
2019-08-02 13:00:00 29.1 12 Nordeste 29 Nordeste 0 -- -- 45
2019-08-02 12:00:00 29.3 11 Norte 29 Noroeste 0 -- -- 41
2019-08-02 11:00:00 28.9 12 Norte 24 Nordeste 0 -- -- 37
2019-08-02 10:00:00 27.7 9 Norte 18 Norte 0 -- -- 43
2019-08-02 09:00:00 24.5 4 Sur 16 Noroeste 0 -- -- 62
2019-08-02 08:00:00 21.7 6 Oeste 17 Norte 0 -- -- 64
2019-08-02 07:00:00 20.7 5 Oeste 12 Noroeste 0 -- -- 67
2019-08-02 06:00:00 21.1 5 Noroeste 15 Noroeste 0 -- -- 61
2019-08-02 05:00:00 21.6 9 Oeste 15 Noroeste 0 -- -- 60
2019-08-02 04:00:00 21.5 8 Noroeste 15 Norte 0 -- -- 65
2019-08-02 03:00:00 21.1 6 Oeste 12 Noroeste 0 -- -- 70
2019-08-02 02:00:00 21.6 4 Noroeste 8 Noroeste 0 -- -- 68
2019-08-02 01:00:00 22.1 3 Oeste 9 Oeste 0 -- -- 69
2019-08-02 00:00:00 23.8 5 Norte 11 Noroeste 0 -- -- 59
2019-08-01 23:00:00 23.3 6 Norte 14 Norte 0 -- -- 66
2019-08-01 22:00:00 23.3 6 Nordeste 13 Nordeste 0 -- -- 63
2019-08-01 21:00:00 23.7 8 Este 15 Este 0 -- -- 63
2019-08-01 20:00:00 24.1 7 Sudeste 14 Sudeste 0 -- -- 63
2019-08-01 19:00:00 24.9 8 Este 21 Sudeste 0 -- -- 63
2019-08-01 18:00:00 26.5 7 Este 22 Este 0 -- -- 57
2019-08-01 17:00:00 26.8 11 Este 27 Norte 0 -- -- 47
2019-08-01 16:00:00 26.6 10 Nordeste 30 Nordeste 0 -- -- 50
2019-08-01 15:00:00 26.2 17 Nordeste 30 Nordeste 0 -- -- 48
2019-08-01 14:00:00 26.8 15 Nordeste 28 Norte 0 -- -- 45
2019-08-01 13:00:00 26.3 14 Nordeste 23 Nordeste 0 -- -- 43
2019-08-01 12:00:00 25.1 11 Nordeste 27 Norte 0 -- -- 49
2019-08-01 11:00:00 24.3 13 Norte 30 Norte 0 -- -- 55
2019-08-01 10:00:00 23.9 10 Nordeste 28 Este 0 -- -- 54
2019-08-01 09:00:00 24.3 11 Nordeste 30 Norte 0 -- -- 52
2019-08-01 08:00:00 23.9 5 Nordeste 16 Nordeste 0 -- -- 52
2019-08-01 07:00:00 22.8 4 Noroeste 17 Nordeste 0 -- -- 56
2019-08-01 06:00:00 22.8 6 Noroeste 13 Noroeste 0 -- -- 52
2019-08-01 05:00:00 21.5 6 Noroeste 12 Noroeste 0 -- -- 69
2019-08-01 04:00:00 21.3 5 Oeste 9 Noroeste 0 -- -- 71
2019-08-01 03:00:00 21.6 3 Oeste 11 Norte 0 -- -- 70
2019-08-01 02:00:00 21.7 2 Oeste 11 Noroeste 0 -- -- 69
2019-08-01 01:00:00 22.6 4 Oeste 13 Noroeste 0 -- -- 61
2019-08-01 00:00:00 22.8 5 Noroeste 10 Norte 0 -- -- 59
2019-07-31 23:00:00 23.8 5 Noroeste 13 Noroeste 0 -- -- 57
2019-07-31 22:00:00 24.6 5 Oeste 12 Noroeste 0 -- -- 54
2019-07-31 21:00:00 24.8 4 Sur 9 Sur 0 -- -- 61
2019-07-31 20:00:00 25.4 0 Calma 7 Sur 0 -- -- 55
2019-07-31 19:00:00 25 5 Sur 12 Sudeste 0 -- -- 58
2019-07-31 18:00:00 25.3 8 Sudeste 23 Este 0 -- -- 51
2019-07-31 17:00:00 25 14 Este 26 Este 0 -- -- 52
2019-07-31 16:00:00 25 18 Este 30 Este 0 -- -- 53
2019-07-31 15:00:00 24.7 13 Nordeste 31 Nordeste 0 -- -- 54
2019-07-31 14:00:00 25.5 8 Nordeste 31 Nordeste 0 -- -- 51
2019-07-31 13:00:00 24.6 12 Este 28 Nordeste 0 -- -- 55
2019-07-31 12:00:00 24.3 14 Nordeste 25 Nordeste 0 -- -- 51
2019-07-31 11:00:00 23.6 10 Nordeste 22 Nordeste 0 -- -- 53
2019-07-31 10:00:00 23.4 10 Nordeste 26 Nordeste 0 -- -- 53
2019-07-31 09:00:00 22.7 8 Nordeste 16 Noroeste 0 -- -- 57
2019-07-31 08:00:00 20.9 6 Noroeste 10 Noroeste 0 -- -- 60
2019-07-31 07:00:00 20.5 8 Noroeste 13 Noroeste 0 -- -- 60
2019-07-31 06:00:00 21.1 4 Norte 14 Noroeste 0 -- -- 57
2019-07-31 05:00:00 21.1 8 Noroeste 15 Norte 0 -- -- 56
2019-07-31 04:00:00 21.1 8 Noroeste 15 Noroeste 0 -- -- 56
2019-07-31 03:00:00 22 5 Noroeste 14 Norte 0 -- -- 54
2019-07-31 02:00:00 22.8 10 Noroeste 26 Noroeste 0 -- -- 51
2019-07-31 01:00:00 23.2 10 Noroeste 26 Noroeste 0 -- -- 51
2019-07-31 00:00:00 23.3 15 Noroeste 29 Norte 0 -- -- 49
2019-07-30 23:00:00 23.4 12 Noroeste 26 Noroeste 0 -- -- 52
2019-07-30 22:00:00 23.9 13 Noroeste 27 Noroeste 0 -- -- 51
2019-07-30 21:00:00 24.8 12 Noroeste 26 Noroeste 0 -- -- 49
2019-07-30 20:00:00 26.4 15 Noroeste 31 Noroeste 0 -- -- 47
2019-07-30 19:00:00 27 9 Nordeste 26 Este 0 -- -- 55
2019-07-30 18:00:00 27.5 9 Nordeste 28 Nordeste 0 -- -- 53
2019-07-30 17:00:00 26.9 17 Nordeste 30 Nordeste 0 -- -- 55
2019-07-30 16:00:00 26.3 12 Este 28 Este 0 -- -- 61
2019-07-30 15:00:00 26.6 12 Nordeste 30 Nordeste 0 -- -- 58
2019-07-30 14:00:00 26.7 15 Nordeste 29 Este 0 -- -- 57
2019-07-30 13:00:00 27 13 Este 30 Este 0 -- -- 53
2019-07-30 12:00:00 25.9 12 Este 21 Sudeste 0 -- -- 58
2019-07-30 11:00:00 26.3 11 Este 15 Sudeste 0 -- -- 56
2019-07-30 10:00:00 26.7 7 Sur 14 Sur 0 -- -- 57
2019-07-30 09:00:00 24.4 5 Noroeste 14 Noroeste 0 -- -- 58
2019-07-30 08:00:00 22.5 4 Noroeste 12 Oeste 0 -- -- 62
2019-07-30 07:00:00 22 4 Noroeste 19 Norte 0 -- -- 68
2019-07-30 06:00:00 22 3 Noroeste 14 Noroeste 0 -- -- 71
2019-07-30 05:00:00 22 5 Oeste 11 Noroeste 0 -- -- 75
2019-07-30 04:00:00 22.5 2 Oeste 12 Sudoeste 0 -- -- 87
2019-07-30 03:00:00 23.4 8 Noroeste 17 Noroeste 0 -- -- 87
2019-07-30 02:00:00 23.3 5 Noroeste 8 Noroeste 0 -- -- 86
2019-07-30 01:00:00 23.8 5 Noroeste 8 Noroeste 0 -- -- 83
2019-07-30 00:00:00 24.5 4 Noroeste 8 Oeste 0 -- -- 81
2019-07-29 23:00:00 25.5 2 Oeste 12 Oeste 0 -- -- 80
2019-07-29 22:00:00 25.8 5 Oeste 15 Sudoeste 0 -- -- 80
2019-07-29 21:00:00 26.4 8 Sudoeste 19 Sur 0 -- -- 77
2019-07-29 20:00:00 27.4 11 Sur 21 Sur 0 -- -- 74
2019-07-29 19:00:00 27.9 13 Sur 24 Sur 0 -- -- 72
2019-07-29 18:00:00 27.8 17 Sur 27 Sur 0 -- -- 68
2019-07-29 17:00:00 25.8 22 Sudeste 33 Sudeste 0 -- -- 78
2019-07-29 16:00:00 25.6 22 Sudeste 31 Sudeste 0 -- -- 71
2019-07-29 15:00:00 25.6 19 Sudeste 27 Sudeste 0 -- -- 63
2019-07-29 14:00:00 25.8 15 Sudeste 21 Sudeste 0 -- -- 55
2019-07-29 13:00:00 25.7 12 Este 17 Este 0 -- -- 53
2019-07-29 12:00:00 24.9 10 Este 16 Este 0 -- -- 52
2019-07-29 11:00:00 24.9 8 Sudeste 13 Sudeste 0 -- -- 55
2019-07-29 10:00:00 24.4 6 Sudeste 8 Sudeste 0 -- -- 60
2019-07-29 09:00:00 21.4 4 Sudoeste 7 Sudoeste 0 -- -- 74
2019-07-29 08:00:00 19 3 Sudoeste 6 Oeste 0 -- -- 80
2019-07-29 07:00:00 18.6 4 Oeste 8 Noroeste 0 -- -- 79
2019-07-29 06:00:00 18.9 6 Noroeste 10 Oeste 0 -- -- 76
2019-07-29 05:00:00 19.5 5 Oeste 10 Oeste 0 -- -- 78
2019-07-29 04:00:00 19.8 6 Noroeste 10 Noroeste 0 -- -- 78
2019-07-29 03:00:00 20.5 3 Noroeste 10 Noroeste 0 -- -- 74
2019-07-29 02:00:00 21.1 5 Noroeste 9 Noroeste 0 -- -- 71
2019-07-29 01:00:00 22.2 3 Noroeste 10 Noroeste 0 -- -- 70
2019-07-29 00:00:00 22.9 6 Noroeste 10 Noroeste 0 -- -- 68
2019-07-28 23:00:00 23.9 5 Oeste 9 Oeste 0 -- -- 63
2019-07-28 22:00:00 24 5 Oeste 11 Sudoeste 0 -- -- 62
2019-07-28 21:00:00 24.3 8 Sudoeste 19 Sur 0 -- -- 61
2019-07-28 20:00:00 24.9 14 Sur 26 Sur 0 -- -- 60
2019-07-28 19:00:00 25.3 18 Sur 26 Sur 0 -- -- 59
2019-07-28 18:00:00 25.9 15 Sur 26 Sur 0 -- -- 58
2019-07-28 17:00:00 25.6 20 Sudeste 27 Sudeste 0 -- -- 58
2019-07-28 16:00:00 27.3 14 Sudeste 26 Nordeste 0 -- -- 50
2019-07-28 15:00:00 28 11 Norte 31 Noroeste 0 -- -- 33
2019-07-28 14:00:00 27.4 15 Nordeste 33 Nordeste 0 -- -- 34
2019-07-28 13:00:00 27.2 12 Noroeste 31 Noroeste 0 -- -- 32
2019-07-28 12:00:00 26.6 14 Noroeste 39 Noroeste 0 -- -- 34
2019-07-28 11:00:00 25.1 15 Noroeste 35 Noroeste 0 -- -- 39
2019-07-28 10:00:00 23.3 11 Noroeste 24 Oeste 0 -- -- 49
2019-07-28 09:00:00 21.9 10 Noroeste 29 Noroeste 0 -- -- 54
2019-07-28 08:00:00 19.5 4 Noroeste 19 Noroeste 0 -- -- 62
2019-07-28 07:00:00 18.7 9 Noroeste 18 Oeste 0 -- -- 66
2019-07-28 06:00:00 19.2 12 Noroeste 23 Noroeste 0 -- -- 61
2019-07-28 05:00:00 19.2 9 Noroeste 26 Norte 0 -- -- 66
2019-07-28 04:00:00 19.6 12 Noroeste 32 Noroeste 0 -- -- 63
2019-07-28 03:00:00 19.1 10 Noroeste 23 Oeste 0 -- -- 71
2019-07-28 02:00:00 18.9 9 Noroeste 24 Noroeste 0 -- -- 77
2019-07-28 01:00:00 19.2 13 Noroeste 26 Noroeste 0 -- -- 74
2019-07-28 00:00:00 19.4 3 Nordeste 14 Oeste 0 -- -- 78
2019-07-27 23:00:00 19.7 5 Noroeste 13 Nordeste 0 -- -- 79
2019-07-26 12:00:00 -- -- -- -- -- -- -- -- --
2019-07-26 11:00:00 -- -- -- -- -- -- -- -- --
2019-07-26 10:00:00 -- -- -- -- -- -- -- -- --
2019-07-26 09:00:00 25.5 3 Sur 8 Oeste 0 -- -- 80
2019-07-26 08:00:00 23.9 2 Sur 10 Noroeste 0 -- -- 85
2019-07-26 07:00:00 23.7 5 Noroeste 14 Noroeste 0 -- -- 84
2019-07-26 06:00:00 23.7 7 Noroeste 14 Noroeste 0 -- -- 80
2019-07-26 05:00:00 24.4 7 Norte 11 Noroeste 0 -- -- 77
2019-07-26 04:00:00 24.7 3 Sudoeste 8 Sudoeste 0 -- -- 84
2019-07-26 03:00:00 25.3 6 Sur 14 Sur 0 -- -- 86
2019-07-26 02:00:00 25.3 6 Sudoeste 14 Sudoeste 0 -- -- 83
2019-07-26 01:00:00 25.6 8 Sudoeste 17 Sudoeste 0 -- -- 84
2019-07-26 00:00:00 25.8 6 Sudoeste 18 Sudoeste 0 -- -- 86
2019-07-25 23:00:00 25.9 12 Sudoeste 19 Sur 0 -- -- 86
2019-07-25 22:00:00 26 12 Sur 21 Sur 0 -- -- 87
2019-07-25 21:00:00 26.3 17 Sur 25 Sur 0 -- -- 85
2019-07-25 20:00:00 26.3 17 Sudeste 26 Sudeste 0 -- -- 86
2019-07-25 19:00:00 27 18 Sudeste 27 Sudeste 0 -- -- 84
2019-07-25 18:00:00 26.9 19 Sudeste 26 Sudeste 0 -- -- 83
2019-07-25 17:00:00 27.6 17 Sudeste 26 Sudeste 0 -- -- 81
2019-07-25 16:00:00 27.7 17 Sudeste 30 Sudeste 0 -- -- 80
2019-07-25 15:00:00 27.3 17 Sudeste 30 Sudeste 0 -- -- 82
2019-07-25 14:00:00 27.4 16 Sudeste 29 Sudeste 0 -- -- 82
2019-07-25 13:00:00 27.4 16 Sudeste 27 Sudeste 0 -- -- 82
2019-07-25 12:00:00 27 14 Sudeste 24 Sur 0 -- -- 84
2019-07-25 11:00:00 26.8 13 Sudeste 22 Sudeste 0 -- -- 84
2019-07-25 10:00:00 27.3 5 Sudeste 9 Sudeste 0 -- -- 79
2019-07-25 09:00:00 26.1 6 Sudoeste 10 Sudoeste 0 -- -- 83
2019-07-25 08:00:00 24.9 5 Sudoeste 11 Oeste 0 -- -- 89
2019-07-25 07:00:00 24.1 4 Oeste 9 Oeste 0 -- -- 90
2019-07-25 06:00:00 24.1 5 Oeste 9 Sudoeste 0 -- -- 89
2019-07-25 05:00:00 24.6 5 Sudoeste 10 Sudoeste 0 -- -- 88
2019-07-25 04:00:00 24.3 0 Calma 5 Noroeste 0 -- -- 82
2019-07-25 03:00:00 23.8 3 Noroeste 8 Noroeste 0 -- -- 77
2019-07-25 02:00:00 24.9 3 Noroeste 12 Oeste 0 -- -- 83
2019-07-25 01:00:00 25.5 6 Oeste 13 Oeste 0 -- -- 84
2019-07-25 00:00:00 25.9 6 Sudoeste 11 Sudoeste 0 -- -- 83
2019-07-24 23:00:00 26.4 5 Oeste 11 Oeste 0 -- -- 77
2019-07-24 22:00:00 26.5 5 Sudoeste 9 Sudoeste 0 -- -- 70
2019-07-24 21:00:00 26.6 6 Sur 15 Sudeste 0 -- -- 71
2019-07-24 20:00:00 26.6 12 Sur 24 Sudeste 0 -- -- 83
2019-07-24 19:00:00 26.6 20 Sudeste 27 Sudeste 0 -- -- 85
2019-07-24 18:00:00 26.9 17 Sudeste 27 Sudeste 0 -- -- 84
2019-07-24 17:00:00 27.6 15 Sudeste 23 Sudeste 0 -- -- 81
2019-07-24 16:00:00 27.8 9 Sudeste 18 Sudeste 0 -- -- 78
2019-07-24 15:00:00 27.7 9 Sudeste 16 Sudeste 0 -- -- 81
2019-07-24 14:00:00 27.2 8 Este 19 Este 0 -- -- 80
2019-07-24 13:00:00 26.4 11 Este 17 Este 0 -- -- 82
2019-07-24 12:00:00 25.8 12 Sudeste 18 Este 0 -- -- 84
2019-07-24 11:00:00 26.3 9 Este 14 Sudeste 0 -- -- 82
2019-07-24 10:00:00 26.3 8 Sudeste 12 Sudeste 0 -- -- 82
2019-07-24 09:00:00 25 6 Oeste 12 Oeste 0 -- -- 89
2019-07-24 08:00:00 23.4 5 Oeste 14 Noroeste 0 -- -- 93
2019-07-24 07:00:00 22.8 5 Oeste 9 Noroeste 0 -- -- 91
2019-07-24 06:00:00 23.7 5 Noroeste 15 Noroeste 0 -- -- 91
2019-07-24 05:00:00 24.7 4 Noroeste 10 Noroeste 0 -- -- 90
2019-07-24 04:00:00 25.2 3 Oeste 6 Sudoeste 0 -- -- 90
2019-07-24 03:00:00 25 3 Sudoeste 6 Sudoeste 0 -- -- 90
2019-07-24 02:00:00 25.3 0 Calma 6 Sudeste 0 -- -- 90
2019-07-24 01:00:00 25.5 3 Sudeste 9 Sudoeste 0 -- -- 87
2019-07-24 00:00:00 25.4 3 Sur 8 Sur 0 -- -- 89
2019-07-23 23:00:00 25.3 3 Sur 14 Sur 0 -- -- 90
2019-07-23 22:00:00 25.5 11 Sudeste 19 Sudeste 0 -- -- 90
2019-07-23 21:00:00 25.9 14 Sudeste 21 Sur 0 -- -- 88
2019-07-23 20:00:00 26.3 14 Sudeste 25 Sudeste 0 -- -- 87
2019-07-23 19:00:00 27.1 14 Sudeste 24 Sudeste 0 -- -- 84
2019-07-23 18:00:00 27.4 14 Sudeste 24 Sudeste 0 -- -- 82
2019-07-23 17:00:00 27.6 14 Sudeste 25 Sudeste 0 -- -- 81
2019-07-23 16:00:00 27.5 16 Sudeste 27 Sudeste 0 -- -- 82
2019-07-23 15:00:00 27.2 21 Sudeste 30 Sudeste 0 -- -- 84
2019-07-23 14:00:00 27.4 19 Sudeste 26 Sudeste 0 -- -- 82
2019-07-23 13:00:00 28.1 9 Este 20 Sudeste 0 -- -- 79
2019-07-23 12:00:00 27.6 10 Este 17 Este 0 -- -- 76
2019-07-23 11:00:00 27.7 9 Sudeste 12 Sudeste 0 -- -- 71
2019-07-23 10:00:00 27.2 6 Sudoeste 13 Oeste 0 -- -- 72
2019-07-23 09:00:00 25.9 7 Oeste 12 Sudoeste 0 -- -- 73
2019-07-23 08:00:00 25.2 6 Oeste 12 Sudoeste 0 -- -- 85
2019-07-23 07:00:00 23.8 4 Oeste 9 Sudoeste 0 -- -- 77
2019-07-23 06:00:00 23.7 4 Noroeste 9 Noroeste 0 -- -- 69
2019-07-23 05:00:00 24.4 6 Noroeste 9 Noroeste 0 -- -- 69
2019-07-23 04:00:00 25 3 Noroeste 5 Noroeste 0 -- -- 64
2019-07-23 03:00:00 25.7 3 Noroeste 8 Noroeste 0 -- -- 63
2019-07-23 02:00:00 26.2 4 Noroeste 8 Noroeste 0 -- -- 60
2019-07-23 01:00:00 27 2 Noroeste 8 Noroeste 0 -- -- 57
2019-07-23 00:00:00 27.6 2 Norte 9 Oeste 0 -- -- 55
2019-07-22 23:00:00 28.5 6 Oeste 10 Oeste 0 -- -- 57
2019-07-22 22:00:00 29.4 6 Oeste 13 Oeste 0 -- -- 53
2019-07-22 21:00:00 30.7 6 Oeste 14 Oeste 0 -- -- 48
2019-07-22 20:00:00 31.3 5 Sudoeste 16 Sudoeste 0 -- -- 45
2019-07-22 19:00:00 30.5 8 Sudeste 18 Sudeste 0 -- -- 50
2019-07-22 18:00:00 27.6 14 Sudeste 24 Sudeste 0 -- -- 79
2019-07-22 17:00:00 28.9 14 Sudeste 23 Sudeste 0 -- -- 68
2019-07-22 16:00:00 29.1 11 Sudeste 20 Sudeste 0 -- -- 59
2019-07-22 15:00:00 29 9 Sudeste 16 Sudeste 0 -- -- 67
2019-07-22 14:00:00 29.4 7 Este 10 Este 0 -- -- 65
2019-07-22 13:00:00 28.6 3 Este 12 Sudeste 0 -- -- 70
2019-07-22 12:00:00 28.6 10 Sudeste 14 Sudeste 0 -- -- 61
2019-07-22 11:00:00 29 9 Sudeste 13 Sudeste 0 -- -- 57
2019-07-22 10:00:00 28.4 2 Sudeste 8 Sudeste 0 -- -- 65
2019-07-22 09:00:00 26.2 5 Este 7 Sudeste 0 -- -- 72
2019-07-22 08:00:00 24.2 2 Oeste 10 Noroeste 0 -- -- 78
2019-07-22 07:00:00 22.9 6 Noroeste 11 Noroeste 0 -- -- 81
2019-07-22 06:00:00 22.8 4 Noroeste 8 Noroeste 0 -- -- 81
2019-07-22 05:00:00 22.9 4 Noroeste 8 Noroeste 0 -- -- 83
2019-07-22 04:00:00 23.2 3 Noroeste 8 Noroeste 0 -- -- 83
2019-07-22 03:00:00 23.7 2 Norte 6 Noroeste 0 -- -- 82
2019-07-22 02:00:00 24 3 Noroeste 5 Noroeste 0 -- -- 84
2019-07-22 01:00:00 24.5 3 Oeste 12 Sudoeste 0 -- -- 85
2019-07-22 00:00:00 24.9 4 Oeste 13 Oeste 0 -- -- 85
2019-07-21 23:00:00 25 6 Oeste 15 Sur 0 -- -- 83
2019-07-21 22:00:00 24.8 10 Sur 18 Sur 0 -- -- 87
2019-07-21 21:00:00 24.9 10 Sur 16 Sur 0 -- -- 87
2019-07-21 20:00:00 25.3 7 Sudeste 18 Sudeste 0 -- -- 84
2019-07-21 19:00:00 26.3 9 Sudeste 22 Sudeste 0 -- -- 80
2019-07-21 18:00:00 26.5 10 Sudeste 21 Sudeste 0 -- -- 79
2019-07-21 17:00:00 26.7 12 Sudeste 19 Sudeste 0 -- -- 75
2019-07-21 16:00:00 26.6 12 Sudeste 17 Sudeste 0 -- -- 78
2019-07-21 15:00:00 26.6 11 Sudeste 15 Sudeste 0 -- -- 78
2019-07-21 14:00:00 26.4 9 Sudeste 14 Este 0 -- -- 78
2019-07-21 13:00:00 26 10 Sudeste 19 Este 0 -- -- 77
2019-07-21 12:00:00 25.7 12 Sudeste 18 Este 0 -- -- 78
2019-07-21 11:00:00 25.5 9 Este 18 Este 0 -- -- 79
2019-07-21 10:00:00 25.5 10 Este 15 Este 0 -- -- 80
2019-07-21 09:00:00 24.4 4 Este 15 Este 0 -- -- 85
2019-07-21 08:00:00 23.2 7 Este 15 Este 0 -- -- 89
2019-07-21 07:00:00 22 3 Oeste 6 Noroeste 0 -- -- 89
2019-07-21 06:00:00 22.1 0 Calma 11 Norte 0 -- -- 89
2019-07-21 05:00:00 22.2 2 Noroeste 9 Noroeste 0 -- -- 89
2019-07-21 04:00:00 22.4 3 Noroeste 8 Noroeste 0 -- -- 88
2019-07-21 03:00:00 22.9 4 Noroeste 9 Noroeste 0 -- -- 87
2019-07-21 02:00:00 23.1 5 Noroeste 9 Norte 0 -- -- 86
2019-07-21 01:00:00 23.9 3 Noroeste 9 Sudoeste 0 -- -- 87
2019-07-21 00:00:00 23.9 5 Sudoeste 6 Sur 0 -- -- 89